Time;durP1;ratioP1;P1;durP2;ratioP2;P2;SDS_P1;SDS_P2;PMS_P1;PMS_P2;Temp;Humidity;BMP_temperature;BMP_pressure;BME280_temperature;BME280_humidity;BME280_pressure;Samples;Min_cycle;Max_cycle;Signal;HPM_P1;HPM_P2
2023/12/26 05:46:11;;;;;;;5.10;1.30;;;;;;;8.80;100.00;100576.34;5767771;24;20037;31
2023/12/26 05:48:36;;;;;;;6.57;1.20;;;;;;;8.72;100.00;100565.03;4746919;30;20134;-75
2023/12/26 05:51:02;;;;;;;8.27;1.27;;;;;;;8.73;100.00;100583.41;4765306;30;20135;-75
2023/12/26 05:53:31;;;;;;;8.07;1.90;;;;;;;8.71;100.00;100587.75;4765954;30;20042;-76
2023/12/26 05:55:57;;;;;;;9.48;2.35;;;;;;;8.65;100.00;100600.41;4768369;30;20038;-75
2023/12/26 05:58:23;;;;;;;6.43;1.70;;;;;;;8.66;100.00;100599.22;4764633;30;20028;-76
2023/12/26 06:00:49;;;;;;;10.85;1.85;;;;;;;8.79;100.00;100605.41;4766905;30;20032;-75
2023/12/26 06:03:14;;;;;;;3.80;1.85;;;;;;;8.86;100.00;100606.34;4760859;30;20089;-76
2023/12/26 06:05:40;;;;;;;6.05;1.23;;;;;;;8.88;100.00;100606.00;4781952;30;20130;-75
2023/12/26 06:08:05;;;;;;;5.43;2.17;;;;;;;8.84;100.00;100600.34;4765269;30;20130;-76
2023/12/26 06:10:31;;;;;;;4.70;1.08;;;;;;;8.91;100.00;100614.41;4761172;30;20717;-76
2023/12/26 06:12:56;;;;;;;10.52;2.00;;;;;;;8.82;100.00;100632.59;4767275;30;20486;-75
2023/12/26 06:15:21;;;;;;;9.23;1.13;;;;;;;8.87;100.00;100635.88;4767713;30;20074;-76
2023/12/26 06:17:47;;;;;;;10.30;2.30;;;;;;;8.84;100.00;100633.03;4768287;30;20031;-76
2023/12/26 06:20:14;;;;;;;7.95;1.85;;;;;;;8.85;100.00;100640.22;4763882;30;20076;-76
2023/12/26 06:22:39;;;;;;;6.78;1.67;;;;;;;8.80;100.00;100646.13;4767149;30;20034;-75
2023/12/26 06:25:05;;;;;;;3.67;1.10;;;;;;;8.87;100.00;100646.22;4762995;30;20040;-75
2023/12/26 06:27:30;;;;;;;7.22;2.63;;;;;;;8.72;100.00;100648.75;4762968;30;20048;-76
2023/12/26 06:29:56;;;;;;;7.25;1.35;;;;;;;8.79;100.00;100652.84;4764617;30;20035;-75
2023/12/26 06:32:21;;;;;;;5.20;1.35;;;;;;;8.77;100.00;100656.03;4762606;30;20122;-76
2023/12/26 06:34:47;;;;;;;11.25;1.35;;;;;;;8.78;100.00;100657.63;4765182;30;20040;-75
2023/12/26 06:37:12;;;;;;;6.63;1.60;;;;;;;8.73;100.00;100666.34;4760132;30;20028;-76
2023/12/26 06:39:39;;;;;;;3.95;1.45;;;;;;;8.80;100.00;100676.81;4760352;30;20030;-76
2023/12/26 06:42:04;;;;;;;6.38;1.15;;;;;;;8.71;100.00;100679.84;4763590;30;20568;-76
2023/12/26 06:44:30;;;;;;;8.25;2.28;;;;;;;8.65;100.00;100682.13;4766471;30;20174;-75
2023/12/26 06:46:56;;;;;;;11.30;1.65;;;;;;;8.78;100.00;100681.97;4765374;30;20048;-75
2023/12/26 06:49:21;;;;;;;5.65;1.42;;;;;;;8.81;100.00;100684.00;4764361;30;20046;-75
2023/12/26 06:51:47;;;;;;;5.57;1.90;;;;;;;8.76;100.00;100687.91;4764804;30;20094;-75
2023/12/26 06:54:12;;;;;;;5.45;1.40;;;;;;;8.74;100.00;100693.84;4764434;30;20044;-75
2023/12/26 06:56:38;;;;;;;5.60;1.17;;;;;;;8.75;100.00;100689.91;4765907;30;20035;-75
2023/12/26 06:59:04;;;;;;;7.60;1.35;;;;;;;8.57;100.00;100696.31;4762443;30;20064;-75
2023/12/26 07:01:29;;;;;;;6.28;1.92;;;;;;;8.53;100.00;100687.84;4761785;30;20043;-75
2023/12/26 07:03:55;;;;;;;5.82;1.98;;;;;;;8.54;100.00;100692.28;4760638;30;20031;-75
2023/12/26 07:06:20;;;;;;;8.32;1.98;;;;;;;8.57;100.00;100685.94;4761760;30;20051;-75
2023/12/26 07:08:45;;;;;;;6.72;1.45;;;;;;;8.61;100.00;100708.34;4761295;30;20051;-75
2023/12/26 07:11:11;;;;;;;11.77;1.67;;;;;;;8.68;100.00;100706.47;4755281;30;20044;-75
2023/12/26 07:13:36;;;;;;;15.25;1.40;;;;;;;8.68;100.00;100706.47;4755542;30;20581;-75
2023/12/26 07:16:02;;;;;;;4.50;2.20;;;;;;;8.57;100.00;100722.22;4761495;30;20039;-75
2023/12/26 07:18:27;;;;;;;8.00;1.52;;;;;;;8.64;100.00;100713.97;4757139;30;20038;-75
2023/12/26 07:20:53;;;;;;;1.63;0.90;;;;;;;8.64;100.00;100716.75;4760247;30;20042;-75
2023/12/26 07:23:18;;;;;;;9.48;1.73;;;;;;;8.56;100.00;100723.41;4756766;30;20096;-75
2023/12/26 07:25:43;;;;;;;4.03;1.50;;;;;;;8.74;100.00;100727.34;4757991;30;20388;-75
2023/12/26 07:28:14;;;;;;;4.22;1.48;;;;;;;8.57;100.00;100725.00;4756451;30;20425;-75
2023/12/26 07:30:40;;;;;;;8.40;2.75;;;;;;;8.61;100.00;100728.69;4759499;30;20035;-75
2023/12/26 07:33:06;;;;;;;7.97;2.25;;;;;;;8.59;100.00;100738.59;4755053;30;20460;-76
2023/12/26 07:35:35;;;;;;;7.50;1.50;;;;;;;8.60;100.00;100746.59;4758248;30;20044;-75
2023/12/26 07:38:00;;;;;;;5.32;1.38;;;;;;;8.45;100.00;100750.25;4758703;30;20405;-75
2023/12/26 07:40:25;;;;;;;10.15;1.73;;;;;;;8.63;100.00;100756.22;4770572;30;20043;-75
2023/12/26 07:42:52;;;;;;;9.45;1.55;;;;;;;8.47;100.00;100767.44;4756088;30;20063;-76
2023/12/26 07:45:22;;;;;;;5.32;1.55;;;;;;;8.56;100.00;100762.47;4757370;30;20093;-76
2023/12/26 07:47:48;;;;;;;6.03;1.38;;;;;;;8.53;100.00;100763.19;4755153;30;20060;-75
2023/12/26 07:50:14;;;;;;;5.57;1.65;;;;;;;8.43;100.00;100774.91;4760236;30;20410;-75
2023/12/26 07:52:39;;;;;;;6.43;2.45;;;;;;;8.39;100.00;100777.63;4758236;30;20035;-76
2023/12/26 07:55:05;;;;;;;6.43;1.40;;;;;;;8.45;100.00;100783.72;4760803;30;20056;-76
2023/12/26 07:57:30;;;;;;;11.25;2.78;;;;;;;8.31;100.00;100790.59;4751013;30;20080;-76
2023/12/26 07:59:55;;;;;;;7.85;2.08;;;;;;;8.28;100.00;100798.88;4759956;30;20051;-76
2023/12/26 08:02:21;;;;;;;6.68;1.50;;;;;;;8.28;100.00;100793.28;4755418;30;20040;-76
2023/12/26 08:04:46;;;;;;;7.63;1.95;;;;;;;8.26;100.00;100804.81;4759717;30;20039;-75
2023/12/26 08:07:11;;;;;;;9.25;1.60;;;;;;;8.20;100.00;100802.66;4758055;30;20081;-75
2023/12/26 08:09:37;;;;;;;10.07;2.42;;;;;;;8.32;100.00;100814.50;4759231;30;20039;-75
2023/12/26 08:12:04;;;;;;;16.35;2.05;;;;;;;8.23;100.00;100810.31;4758460;30;20032;-76
2023/12/26 08:14:30;;;;;;;8.95;1.55;;;;;;;8.12;100.00;100812.88;4772757;29;20418;-75
2023/12/26 08:16:55;;;;;;;13.32;2.22;;;;;;;8.09;100.00;100817.16;4760607;30;20039;-75
2023/12/26 08:19:20;;;;;;;13.45;2.83;;;;;;;8.12;100.00;100827.59;4760111;30;20040;-75
2023/12/26 08:21:46;;;;;;;9.45;1.58;;;;;;;8.21;100.00;100832.19;4763117;30;20039;-75
2023/12/26 08:24:11;;;;;;;6.35;1.45;;;;;;;8.17;100.00;100840.44;4763346;30;20051;-75
2023/12/26 08:26:36;;;;;;;4.57;2.10;;;;;;;8.62;100.00;100853.06;4763677;30;20494;-75
2023/12/26 08:29:02;;;;;;;12.07;2.08;;;;;;;8.43;100.00;100847.44;4759386;30;20058;-75
2023/12/26 08:31:27;;;;;;;13.40;1.88;;;;;;;8.20;100.00;100867.63;4760850;30;20089;-75
2023/12/26 08:33:53;;;;;;;7.20;1.70;;;;;;;8.19;100.00;100866.00;4759748;30;20042;-75
2023/12/26 08:36:18;;;;;;;8.00;1.73;;;;;;;8.29;100.00;100868.22;4756913;30;20126;-75
2023/12/26 08:38:44;;;;;;;14.18;3.05;;;;;;;8.20;100.00;100867.63;4761548;30;20055;-76
2023/12/26 08:41:11;;;;;;;8.98;2.13;;;;;;;8.29;100.00;100876.59;4765322;30;20487;-76
2023/12/26 08:43:37;;;;;;;10.98;2.42;;;;;;;8.30;100.00;100881.00;4763236;30;20120;-76
2023/12/26 08:46:03;;;;;;;11.05;2.38;;;;;;;8.14;100.00;100881.03;4765530;30;20035;-75
2023/12/26 08:48:28;;;;;;;7.07;2.20;;;;;;;8.23;100.00;100889.19;4763205;30;20514;-75
2023/12/26 08:50:54;;;;;;;12.77;1.90;;;;;;;8.24;100.00;100890.00;4765490;30;20047;-75
2023/12/26 08:53:22;;;;;;;7.03;1.80;;;;;;;8.32;100.00;100892.59;4763345;30;20046;-75
2023/12/26 08:55:48;;;;;;;6.03;1.42;;;;;;;8.33;100.00;100904.56;4762870;30;20043;-75
2023/12/26 08:58:14;;;;;;;13.20;1.80;;;;;;;8.41;100.00;100908.34;4760948;30;20039;-75
2023/12/26 09:00:40;;;;;;;8.05;1.85;;;;;;;8.37;100.00;100918.59;4761650;30;20101;-75
2023/12/26 09:03:07;;;;;;;7.15;1.95;;;;;;;8.32;100.00;100912.13;4765224;30;20514;-75
2023/12/26 09:05:33;;;;;;;11.18;2.35;;;;;;;8.44;100.00;100925.19;4767845;30;20437;-75
2023/12/26 09:07:58;;;;;;;9.85;1.73;;;;;;;8.38;100.00;100934.97;4768953;30;20044;-75
2023/12/26 09:10:23;;;;;;;14.00;2.45;;;;;;;8.45;100.00;100934.34;4769485;30;20036;-75
2023/12/26 09:12:49;;;;;;;5.40;1.60;;;;;;;8.50;100.00;100931.31;4767454;30;20030;-75
2023/12/26 09:15:15;;;;;;;12.10;2.00;;;;;;;8.44;100.00;100939.13;4766032;30;20501;-75
2023/12/26 09:17:40;;;;;;;8.20;2.15;;;;;;;8.38;100.00;100945.31;4765348;30;20064;-75
2023/12/26 09:20:06;;;;;;;5.85;1.52;;;;;;;8.42;100.00;100943.47;4768722;30;20031;-75
2023/12/26 09:22:31;;;;;;;9.25;2.42;;;;;;;8.46;100.00;100944.38;4766456;30;20036;-75
2023/12/26 09:24:57;;;;;;;14.18;1.92;;;;;;;8.48;100.00;100953.19;4765415;30;20039;-75
2023/12/26 09:27:22;;;;;;;9.65;2.35;;;;;;;8.54;100.00;100962.88;4767689;30;20118;-75
2023/12/26 09:29:47;;;;;;;9.52;1.90;;;;;;;8.52;100.00;100968.81;4766230;30;20067;-75
2023/12/26 09:32:13;;;;;;;13.05;1.95;;;;;;;8.59;100.00;100962.59;4768258;30;20066;-75
2023/12/26 09:34:39;;;;;;;7.93;1.95;;;;;;;8.56;100.00;100980.09;4767427;30;20044;-75
2023/12/26 09:37:04;;;;;;;10.10;2.00;;;;;;;8.59;100.00;100993.28;4769474;30;20032;-72
2023/12/26 09:39:30;;;;;;;9.75;1.67;;;;;;;8.54;100.00;100993.56;4774206;30;20774;-72
2023/12/26 09:41:56;;;;;;;5.18;1.60;;;;;;;8.60;100.00;100992.13;4760717;30;20052;-72
2023/12/26 09:44:22;;;;;;;2.90;1.23;;;;;;;8.67;100.00;101005.44;4766403;30;20035;-72
2023/12/26 09:46:47;;;;;;;5.25;1.73;;;;;;;8.79;100.00;100996.13;4767823;30;20544;-74
2023/12/26 09:49:13;;;;;;;9.75;3.25;;;;;;;8.76;100.00;101000.47;4777528;30;20036;-72
2023/12/26 09:51:44;;;;;;;6.47;1.33;;;;;;;8.72;100.00;101013.53;4777722;30;20552;-72
2023/12/26 09:54:10;;;;;;;8.93;1.73;;;;;;;8.84;100.00;101029.38;4767762;30;20486;-72
2023/12/26 09:56:39;;;;;;;6.40;1.80;;;;;;;8.84;100.00;101023.78;4768626;30;20092;-72
2023/12/26 09:59:05;;;;;;;10.82;2.00;;;;;;;8.83;100.00;101011.00;4765222;30;20024;-73
2023/12/26 10:01:32;;;;;;;14.00;2.60;;;;;;;8.87;100.00;101026.66;4765878;30;20486;-72
2023/12/26 10:03:58;;;;;;;11.13;2.10;;;;;;;8.80;100.00;101034.06;4762951;30;20055;-73
2023/12/26 10:06:23;;;;;;;15.10;2.30;;;;;;;8.91;100.00;101029.53;4762114;30;20032;-72
2023/12/26 10:08:49;;;;;;;11.48;2.50;;;;;;;8.88;100.00;101024.69;4764533;30;20051;-72
2023/12/26 10:11:15;;;;;;;11.57;1.70;;;;;;;8.93;100.00;101044.72;4762098;30;20399;-73
2023/12/26 10:13:49;;;;;;;9.68;1.83;;;;;;;8.86;100.00;101038.19;4764760;30;20062;-72
2023/12/26 10:16:15;;;;;;;12.05;1.85;;;;;;;9.01;100.00;101045.72;4762273;30;20036;-73
2023/12/26 10:18:41;;;;;;;8.65;2.00;;;;;;;8.90;100.00;101059.44;4766575;30;20038;-72
2023/12/26 10:21:06;;;;;;;15.10;2.53;;;;;;;8.97;100.00;101056.00;4761906;30;20044;-72
2023/12/26 10:23:33;;;;;;;9.63;1.63;;;;;;;8.97;100.00;101069.97;4764349;30;20061;-72
2023/12/26 10:25:59;;;;;;;12.45;1.95;;;;;;;8.97;100.00;101058.78;4763016;30;20044;-72
2023/12/26 10:28:24;;;;;;;11.93;1.98;;;;;;;8.90;100.00;101067.00;4761761;30;20080;-73
2023/12/26 10:30:50;;;;;;;8.88;1.98;;;;;;;9.01;100.00;101064.47;4762019;30;20085;-72
2023/12/26 10:33:25;;;;;;;13.18;2.60;;;;;;;8.90;100.00;101078.16;4760157;30;20051;-72
2023/12/26 10:36:06;;;;;;;12.75;2.03;;;;;;;8.92;100.00;101070.25;4760146;30;20043;-72
2023/12/26 10:38:32;;;;;;;13.05;2.17;;;;;;;8.94;100.00;101079.06;4761656;30;20406;-72
2023/12/26 10:40:59;;;;;;;8.73;1.85;;;;;;;8.88;100.00;101077.72;4760962;30;20039;-72
2023/12/26 10:43:31;;;;;;;13.32;3.40;;;;;;;8.95;100.00;101080.69;4758205;30;20036;-72
2023/12/26 10:45:57;;;;;;;16.67;4.28;;;;;;;8.95;100.00;101080.69;4762152;30;20196;-72
2023/12/26 10:48:27;;;;;;;19.17;2.70;;;;;;;8.94;100.00;101084.66;4762200;30;20055;-75
2023/12/26 10:50:55;;;;;;;13.40;2.63;;;;;;;8.95;100.00;101094.63;4759617;30;20412;-74
2023/12/26 10:53:25;;;;;;;17.63;2.72;;;;;;;8.99;100.00;101092.75;4759197;30;20039;-73
2023/12/26 10:55:51;;;;;;;7.55;1.85;;;;;;;9.02;100.00;101097.59;4761186;30;20043;-73
2023/12/26 10:58:29;;;;;;;10.30;1.90;;;;;;;9.06;100.00;101092.09;4763083;30;20498;-72
2023/12/26 13:52:27;;;;;;;8.57;2.53;;;;;;;9.09;100.00;101309.22;4762501;30;20046;-76
2023/12/26 13:54:53;;;;;;;10.70;2.72;;;;;;;9.04;100.00;101315.03;4767129;30;20498;-76
2023/12/26 13:57:18;;;;;;;8.25;2.47;;;;;;;9.04;100.00;101318.63;4768419;30;20028;-76
2023/12/26 13:59:44;;;;;;;12.45;2.90;;;;;;;9.07;100.00;101345.06;4762336;30;20406;-76
2023/12/26 14:02:09;;;;;;;16.00;4.43;;;;;;;8.99;100.00;101338.44;4761094;30;20116;-76
2023/12/26 14:04:35;;;;;;;9.32;2.33;;;;;;;9.01;100.00;101352.88;4760967;30;20050;-76
2023/12/26 14:07:00;;;;;;;11.05;2.40;;;;;;;9.00;100.00;101359.59;4759934;30;20081;-76
2023/12/26 14:09:25;;;;;;;13.75;2.05;;;;;;;9.06;100.00;101362.97;4764994;30;20036;-76
2023/12/26 14:11:51;;;;;;;10.85;1.75;;;;;;;8.95;100.00;101362.66;4765018;30;20046;-76
2023/12/26 14:14:16;;;;;;;10.77;2.00;;;;;;;8.87;100.00;101369.19;4777920;30;20847;-76
2023/12/26 14:16:41;;;;;;;11.70;2.60;;;;;;;8.86;100.00;101384.34;4762732;30;20144;-76
2023/12/26 14:19:07;;;;;;;1.73;0.85;;;;;;;8.70;100.00;101399.00;4762410;30;20487;-76
2023/12/26 14:21:32;;;;;;;7.53;1.50;;;;;;;8.61;100.00;101403.13;4760303;30;20074;-76
2023/12/26 14:23:58;;;;;;;5.40;0.73;;;;;;;8.58;100.00;101412.19;4764552;30;20536;-76
2023/12/26 14:26:23;;;;;;;5.25;1.05;;;;;;;8.45;100.00;101408.59;4762274;30;20035;-76
2023/12/26 14:28:48;;;;;;;7.50;1.58;;;;;;;8.56;100.00;101404.19;4762908;30;20538;-76
2023/12/26 14:31:14;;;;;;;7.55;1.67;;;;;;;8.61;100.00;101412.31;4762650;30;20060;-76
2023/12/26 14:33:39;;;;;;;4.78;1.35;;;;;;;8.55;100.00;101420.09;4764753;30;20066;-76
2023/12/26 14:36:06;;;;;;;4.57;0.70;;;;;;;8.52;100.00;101415.22;4760493;30;20166;-76
2023/12/26 14:38:31;;;;;;;4.53;1.00;;;;;;;8.34;100.00;101425.78;4759854;30;20038;-76
2023/12/26 14:40:57;;;;;;;3.08;0.95;;;;;;;8.53;100.00;101435.56;4763858;30;20039;-76
2023/12/26 14:43:23;;;;;;;7.57;3.28;;;;;;;8.41;100.00;101435.56;4762306;30;20043;-76
2023/12/26 14:45:48;;;;;;;11.60;5.55;;;;;;;8.57;100.00;101449.63;4777864;30;20479;-76
2023/12/26 14:48:14;;;;;;;11.13;3.88;;;;;;;8.39;100.00;101443.44;4763668;30;20056;-76
2023/12/26 14:50:39;;;;;;;7.95;2.17;;;;;;;8.37;100.00;101456.91;4762241;30;20070;-76
2023/12/26 14:53:04;;;;;;;8.68;1.98;;;;;;;8.48;100.00;101458.13;4760500;30;20477;-76
2023/12/26 14:55:30;;;;;;;2.97;1.55;;;;;;;8.29;100.00;101461.47;4761003;30;20471;-76
2023/12/26 14:57:55;;;;;;;6.85;2.00;;;;;;;8.34;100.00;101464.81;4759881;30;20031;-76
2023/12/26 15:00:21;;;;;;;6.35;1.30;;;;;;;8.23;100.00;101474.81;4753594;30;20044;-76
2023/12/26 15:02:48;;;;;;;5.70;2.03;;;;;;;8.32;100.00;101478.31;4761245;30;20123;-76
2023/12/26 15:05:14;;;;;;;6.65;1.00;;;;;;;8.25;100.00;101472.50;4760391;30;20083;-76
2023/12/26 15:07:40;;;;;;;7.38;1.73;;;;;;;8.32;100.00;101478.31;4756941;30;20518;-76
2023/12/26 15:10:06;;;;;;;4.80;1.38;;;;;;;8.37;100.00;101484.81;4755134;30;20040;-76
2023/12/26 15:12:31;;;;;;;4.88;2.25;;;;;;;8.38;100.00;101489.25;4756229;30;20035;-76
2023/12/26 15:14:56;;;;;;;3.20;1.50;;;;;;;8.28;100.00;101482.13;4758776;30;20042;-77
2023/12/26 15:17:22;;;;;;;6.05;2.33;;;;;;;8.40;100.00;101489.72;4757171;30;20141;-75
2023/12/26 15:19:47;;;;;;;10.50;3.70;;;;;;;8.21;100.00;101499.44;4757263;30;20043;-77
2023/12/26 15:22:13;;;;;;;5.72;2.30;;;;;;;8.07;100.00;101493.38;4749978;30;20466;-77
2023/12/26 15:24:38;;;;;;;4.82;1.25;;;;;;;8.01;100.00;101495.59;4756718;30;20042;-77
2023/12/26 15:27:04;;;;;;;6.22;1.15;;;;;;;8.02;100.00;101502.78;4757208;30;20071;-76
2023/12/26 15:29:30;;;;;;;9.52;2.53;;;;;;;7.99;100.00;101508.22;4756698;30;20035;-76
2023/12/26 15:31:55;;;;;;;4.97;1.40;;;;;;;8.02;100.00;101513.13;4752199;30;20035;-76
2023/12/26 15:34:21;;;;;;;1.83;1.00;;;;;;;7.88;100.00;101511.44;4752181;30;20036;-77
2023/12/26 15:36:48;;;;;;;9.50;1.55;;;;;;;7.87;100.00;101518.19;4751254;30;20040;-76
2023/12/26 15:39:14;;;;;;;4.20;1.00;;;;;;;7.82;100.00;101526.78;4757392;30;20058;-75
2023/12/26 15:41:39;;;;;;;3.80;1.10;;;;;;;7.83;100.00;101531.19;4751846;30;20035;-77
2023/12/26 15:44:05;;;;;;;8.25;1.95;;;;;;;7.98;100.00;101540.06;4755551;30;20043;-77
2023/12/26 15:46:30;;;;;;;4.25;1.00;;;;;;;7.97;100.00;101560.72;4750341;30;20040;-76
2023/12/26 15:48:56;;;;;;;5.57;1.27;;;;;;;8.04;100.00;101566.56;4748612;30;20051;-75
2023/12/26 15:51:24;;;;;;;14.40;5.15;;;;;;;7.86;100.00;101560.34;4754383;30;20506;-77
2023/12/26 15:53:50;;;;;;;12.38;6.40;;;;;;;7.82;100.00;101557.44;4750799;30;20458;-76
2023/12/26 15:56:20;;;;;;;17.15;8.43;;;;;;;7.79;100.00;101566.47;4750508;30;20093;-76
2023/12/26 15:58:46;;;;;;;13.30;7.20;;;;;;;7.82;100.00;101565.81;4750066;30;20028;-76
2023/12/26 16:01:11;;;;;;;24.63;11.70;;;;;;;7.79;100.00;101572.06;4752790;30;20047;-76
2023/12/26 16:03:37;;;;;;;20.42;11.85;;;;;;;7.89;100.00;101574.41;4751043;30;20034;-76
2023/12/26 16:06:02;;;;;;;15.52;6.13;;;;;;;7.79;100.00;101571.25;4752982;30;20092;-76
2023/12/26 16:08:29;;;;;;;7.90;3.70;;;;;;;7.67;100.00;101574.78;4752282;30;20059;-76
2023/12/26 16:10:55;;;;;;;8.27;3.50;;;;;;;7.81;100.00;101577.28;4752412;30;20586;-75
2023/12/26 16:15:56;;;;;;;13.85;5.30;;;;;;;7.92;100.00;101576.50;4825783;24;20067;-76
2023/12/26 16:18:21;;;;;;;13.90;7.20;;;;;;;7.77;100.00;101585.50;4765782;29;20032;-76
2023/12/26 16:20:46;;;;;;;10.00;5.03;;;;;;;7.95;100.00;101594.56;4749526;30;20563;-76
2023/12/26 16:23:12;;;;;;;8.95;4.88;;;;;;;7.96;100.00;101610.09;4750198;30;20051;-76
2023/12/26 16:25:42;;;;;;;12.80;3.53;;;;;;;7.78;100.00;101615.03;4753648;29;20114;-76
2023/12/26 16:28:08;;;;;;;11.20;5.68;;;;;;;7.85;100.00;101614.47;4746565;30;20146;-76
2023/12/26 16:30:33;;;;;;;7.45;3.70;;;;;;;7.97;100.00;101619.28;4752254;30;20395;-76
2023/12/26 16:33:01;;;;;;;7.15;3.60;;;;;;;7.89;100.00;101616.22;4749486;30;20043;-75
2023/12/26 16:35:26;;;;;;;11.07;3.28;;;;;;;7.84;100.00;101629.56;4752772;30;20035;-75
2023/12/26 16:37:52;;;;;;;8.98;3.40;;;;;;;7.86;100.00;101630.88;4750032;30;20093;-76
2023/12/26 16:40:18;;;;;;;9.95;4.88;;;;;;;7.93;100.00;101636.69;4754136;30;20443;-76
2023/12/26 16:42:43;;;;;;;5.18;2.97;;;;;;;7.73;100.00;101629.16;4764007;29;20094;-75
2023/12/26 16:45:10;;;;;;;6.43;3.03;;;;;;;7.82;100.00;101643.84;4752275;30;20116;-75
2023/12/26 16:47:37;;;;;;;7.95;4.68;;;;;;;7.86;100.00;101660.69;4752025;30;20048;-75
2023/12/26 16:50:04;;;;;;;13.90;6.90;;;;;;;7.94;100.00;101666.19;4765266;30;20043;-75
2023/12/26 16:52:29;;;;;;;18.27;9.15;;;;;;;7.98;100.00;101669.13;4751828;30;20059;-75
2023/12/26 16:54:54;;;;;;;13.30;8.52;;;;;;;7.99;100.00;101667.13;4752984;30;20566;-75
2023/12/26 16:57:20;;;;;;;41.60;21.23;;;;;;;7.84;100.00;101668.56;4755824;30;20058;-75
2023/12/26 16:59:48;;;;;;;15.15;9.55;;;;;;;7.73;100.00;101668.97;4754926;30;20127;-75
2023/12/26 17:02:14;;;;;;;12.98;7.45;;;;;;;7.67;100.00;101669.53;4754486;30;20028;-75
2023/12/26 17:04:39;;;;;;;12.77;5.63;;;;;;;7.86;100.00;101678.25;4769179;29;20040;-75
2023/12/26 17:07:06;;;;;;;10.25;5.82;;;;;;;7.75;100.00;101671.44;4755517;30;20047;-75
2023/12/26 17:09:32;;;;;;;9.30;5.28;;;;;;;7.83;100.00;101684.50;4748877;30;20479;-75
2023/12/26 17:11:57;;;;;;;12.20;4.35;;;;;;;7.87;100.00;101691.03;4750924;30;20044;-75
2023/12/26 17:14:23;;;;;;;9.80;5.28;;;;;;;7.83;100.00;101689.25;4756606;30;21476;-76
2023/12/26 17:16:49;;;;;;;13.05;5.55;;;;;;;7.81;100.00;101692.38;4753703;30;20098;-75
2023/12/26 17:19:14;;;;;;;13.68;7.07;;;;;;;7.77;100.00;101685.84;4745998;30;20036;-75
2023/12/26 17:21:41;;;;;;;7.65;5.97;;;;;;;7.63;100.00;101691.69;4754302;30;20062;-75
2023/12/26 17:24:07;;;;;;;16.33;7.80;;;;;;;7.51;100.00;101702.75;4753108;30;20062;-75
2023/12/26 17:26:32;;;;;;;7.40;4.50;;;;;;;7.65;100.00;101705.25;4758002;30;20447;-75
2023/12/26 17:28:57;;;;;;;16.98;7.32;;;;;;;7.45;100.00;101707.69;4757521;30;20044;-75
2023/12/26 17:31:23;;;;;;;11.07;5.40;;;;;;;7.61;100.00;101721.88;4757873;30;20185;-75
2023/12/26 17:33:49;;;;;;;10.88;5.30;;;;;;;7.54;100.00;101722.38;4754791;30;20035;-75
2023/12/26 17:36:16;;;;;;;16.40;7.75;;;;;;;7.61;100.00;101727.44;4758991;30;20032;-75
2023/12/26 17:38:43;;;;;;;8.57;5.15;;;;;;;7.64;100.00;101723.97;4757796;30;20036;-75
2023/12/26 17:41:09;;;;;;;9.52;6.22;;;;;;;7.65;100.00;101733.13;4755937;30;20074;-75
2023/12/26 17:43:34;;;;;;;13.07;6.57;;;;;;;7.73;100.00;101732.25;4759417;30;20071;-76
2023/12/26 17:45:59;;;;;;;9.45;5.20;;;;;;;7.72;100.00;101737.03;4757915;30;20071;-76
2023/12/26 17:48:25;;;;;;;12.35;4.85;;;;;;;7.62;100.00;101740.19;4755032;30;20045;-76
2023/12/26 17:50:50;;;;;;;12.23;6.15;;;;;;;7.44;100.00;101744.22;4760109;30;20063;-77
2023/12/26 17:53:18;;;;;;;14.35;5.97;;;;;;;7.66;100.00;101746.72;4756259;30;20081;-76
2023/12/26 17:55:43;;;;;;;11.90;6.35;;;;;;;7.37;100.00;101747.53;4758301;30;20122;-75
2023/12/26 17:58:08;;;;;;;16.17;6.15;;;;;;;7.47;100.00;101749.94;4760420;30;20056;-75
2023/12/26 18:00:34;;;;;;;15.52;6.95;;;;;;;7.59;100.00;101756.75;4757041;30;20031;-75
2023/12/26 18:03:00;;;;;;;12.18;4.57;;;;;;;7.41;100.00;101756.88;4758048;30;20036;-75
2023/12/26 18:05:25;;;;;;;14.60;7.65;;;;;;;7.54;100.00;101761.38;4756807;30;20048;-75
2023/12/26 18:07:50;;;;;;;25.40;10.98;;;;;;;7.47;100.00;101755.53;4769156;30;20135;-74
2023/12/26 18:10:16;;;;;;;24.75;13.00;;;;;;;7.57;100.00;101761.84;4757632;30;20052;-75
2023/12/26 18:12:41;;;;;;;19.73;9.07;;;;;;;7.43;100.00;101754.56;4759472;30;20158;-75
2023/12/26 18:15:07;;;;;;;21.55;7.88;;;;;;;7.47;100.00;101766.66;4755684;30;20040;-75
2023/12/26 18:17:33;;;;;;;14.00;6.53;;;;;;;7.51;100.00;101781.56;4753692;30;20555;-75
2023/12/26 18:19:58;;;;;;;8.63;5.68;;;;;;;7.53;100.00;101772.88;4770915;30;20123;-75
2023/12/26 18:22:24;;;;;;;11.15;5.45;;;;;;;7.52;100.00;101772.03;4757914;30;20684;-75
2023/12/26 18:24:49;;;;;;;11.98;4.70;;;;;;;7.47;100.00;101772.25;4755563;30;20059;-75
2023/12/26 18:27:15;;;;;;;12.50;4.97;;;;;;;7.51;100.00;101772.41;4758020;30;20036;-75
2023/12/26 18:29:41;;;;;;;10.68;4.90;;;;;;;7.48;100.00;101773.88;4757408;30;20142;-75
2023/12/26 18:32:07;;;;;;;6.65;3.88;;;;;;;7.46;100.00;101770.63;4754074;30;20082;-75
2023/12/26 18:34:32;;;;;;;9.15;4.53;;;;;;;7.45;100.00;101774.53;4755565;30;20094;-75
2023/12/26 18:36:59;;;;;;;11.48;4.40;;;;;;;7.44;100.00;101784.06;4754824;30;20509;-74
2023/12/26 18:39:24;;;;;;;9.45;4.50;;;;;;;7.41;100.00;101783.91;4759201;29;20035;-74
2023/12/26 18:41:50;;;;;;;9.93;3.78;;;;;;;7.40;100.00;101785.88;4758352;30;20043;-75
2023/12/26 18:44:15;;;;;;;8.80;4.00;;;;;;;7.40;100.00;101798.97;4753373;30;20040;-74
2023/12/26 18:46:42;;;;;;;9.88;3.95;;;;;;;7.19;100.00;101802.50;4753281;30;20040;-74
2023/12/26 18:49:07;;;;;;;12.63;4.15;;;;;;;7.27;100.00;101806.38;4750900;30;20487;-75
2023/12/26 18:51:34;;;;;;;8.65;3.28;;;;;;;7.24;100.00;101807.88;4750906;30;20031;-75
2023/12/26 18:54:00;;;;;;;6.22;3.17;;;;;;;7.29;100.00;101807.72;4755409;30;20101;-73
2023/12/26 18:56:27;;;;;;;10.23;4.03;;;;;;;7.31;100.00;101812.94;4752128;30;20047;-73
2023/12/26 18:58:53;;;;;;;14.45;4.35;;;;;;;7.27;100.00;101818.38;4751443;30;20043;-72
2023/12/26 19:01:19;;;;;;;16.85;7.70;;;;;;;7.22;100.00;101815.75;4754033;30;20055;-73
2023/12/26 19:03:45;;;;;;;15.43;8.32;;;;;;;7.30;100.00;101816.88;4761184;29;20043;-72
2023/12/26 19:06:11;;;;;;;13.80;7.55;;;;;;;7.25;100.00;101819.81;4753316;30;20048;-73
2023/12/26 19:08:36;;;;;;;11.43;6.15;;;;;;;7.12;100.00;101816.91;4757823;30;20062;-72
2023/12/26 19:11:01;;;;;;;13.43;5.85;;;;;;;7.18;100.00;101814.78;4754696;30;20055;-75
2023/12/26 19:13:27;;;;;;;13.70;6.70;;;;;;;7.16;100.00;101819.03;4750928;30;20043;-75
2023/12/26 19:15:52;;;;;;;10.90;4.72;;;;;;;7.13;100.00;101815.78;4751636;30;20083;-72
2023/12/26 19:18:19;;;;;;;12.82;5.80;;;;;;;7.17;100.00;101815.94;4749749;30;20123;-76
2023/12/26 19:20:44;;;;;;;8.65;5.20;;;;;;;7.20;100.00;101823.63;4748926;30;20044;-72
2023/12/26 19:23:10;;;;;;;9.93;5.55;;;;;;;7.22;100.00;101840.00;4751336;29;20047;-76
2023/12/26 19:25:41;;;;;;;12.15;6.72;;;;;;;7.13;100.00;101840.84;4754203;30;20031;-74
2023/12/26 19:28:07;;;;;;;13.02;5.95;;;;;;;7.10;100.00;101843.44;4751621;30;20491;-73
2023/12/26 19:30:32;;;;;;;14.80;6.47;;;;;;;7.20;100.00;101850.66;4752135;29;20550;-74
2023/12/26 19:32:58;;;;;;;11.82;5.72;;;;;;;7.18;100.00;101861.28;4752355;30;20139;-75
2023/12/26 19:35:23;;;;;;;12.70;6.05;;;;;;;7.12;100.00;101858.66;4751499;30;20538;-73
2023/12/26 19:37:49;;;;;;;11.07;5.15;;;;;;;7.04;100.00;101862.31;4753358;30;20059;-72
2023/12/26 19:40:14;;;;;;;12.15;5.32;;;;;;;7.04;100.00;101859.53;4750911;30;20057;-77
2023/12/26 19:42:39;;;;;;;7.82;4.30;;;;;;;6.99;100.00;101868.03;4754718;30;20055;-74
2023/12/26 19:45:05;;;;;;;8.13;5.07;;;;;;;6.98;100.00;101874.75;4754690;30;20109;-76
2023/12/26 19:47:31;;;;;;;6.95;4.50;;;;;;;7.02;100.00;101867.41;4752260;30;20048;-75
2023/12/26 19:49:56;;;;;;;10.57;4.85;;;;;;;6.97;100.00;101870.31;4755314;30;20032;-76
2023/12/26 19:52:21;;;;;;;8.80;4.32;;;;;;;6.97;100.00;101881.47;4749974;30;20082;-75
2023/12/26 19:54:47;;;;;;;14.45;4.13;;;;;;;7.00;100.00;101883.59;4749778;30;20126;-75